Flight Track Log - Related Links

Times and Time Zones

All times are in EDT time to prevent confusion due to time zone crossing. See the NKS922 flight status page for this flight to view local times or setup timezone preferences in your user account.

Time Position Orientation Groundspeed Altitude Reporting Facility
EDT Latitude Longitude Course Direction KTS MPH feet Rate Location/Type
Sat 02:37:20 PM 33.7719 -78.8553 54° Northeast 224 258 4,700  Level Jacksonville Center
Sat 02:38:20 PM 33.8194 -78.7756 54° Northeast 260 299 8,000 2,585 Climbing Jacksonville Center
Sat 02:40:28 PM 33.9969 -78.6628 28° Northeast 337 388 12,800 2,394 Climbing Washington Center
Sat 02:41:00 PM 33.8930 -78.5899 49° Northeast  Level FlightAware Approximate
Sat 02:41:28 PM 34.1025 -78.6139 21° North 365 420 15,500  Level Washington Center
Sat 02:42:00 PM 33.9670 -78.4773 54° Northeast  Level FlightAware Approximate
Sat 02:42:28 PM 34.2119 -78.5653 20° North 398 458 17,500  Level Washington Center
Sat 02:43:28 PM 34.3389 -78.5044 22° Northeast 423 487 19,400 1,800 Climbing Washington Center
Sat 02:44:28 PM 34.4592 -78.4458 22° Northeast 437 503 21,100 1,500 Climbing Washington Center
Sat 02:45:28 PM 34.5900 -78.3847 21° North 469 540 22,400 1,950 Climbing Washington Center
Sat 02:46:28 PM 34.7164 -78.3233 22° Northeast 484 557 25,000 957 Climbing Washington Center
Sat 02:52:22 PM 35.5090 -77.9350 22° Northeast 536 617 29,000 602 Climbing FlightAware ADS-B
Sat 02:53:07 PM 35.6130 -77.8830 22° Northeast 539 620 29,000  Level FlightAware ADS-B
Sat 02:53:47 PM 35.7060 -77.8370 22° Northeast 536 617 29,000  Level FlightAware ADS-B
Sat 02:54:27 PM 35.7980 -77.7920 22° Northeast 538 619 29,000  Level FlightAware ADS-B
Sat 02:55:12 PM 35.9030 -77.7400 22° Northeast 540 621 29,000  Level FlightAware ADS-B
Sat 02:55:52 PM 35.9920 -77.6960 22° Northeast 540 621 29,000  Level FlightAware ADS-B
Sat 02:56:47 PM 36.1250 -77.6390 19° North 536 617 29,000 -540 Level FlightAware ADS-B
Sat 02:57:32 PM 36.2330 -77.5930 19° North 529 609 28,100 -750 Descending FlightAware ADS-B
Sat 02:58:07 PM 36.3090 -77.5620 18° North 526 605 28,000 -71 Descending FlightAware ADS-B
Sat 02:58:57 PM 36.4080 -77.5230 18° North 526 605 28,000  Level FlightAware ADS-B
Sat 02:59:37 PM 36.4860 -77.4910 18° North 526 605 28,000 -706 Level FlightAware ADS-B
Sat 03:00:22 PM 36.6170 -77.4280 21° North 539 620 27,000 -632 Descending FlightAware ADS-B
Sat 03:01:12 PM 36.7360 -77.3760 19° North 532 612 27,000  Level FlightAware ADS-B
Sat 03:02:07 PM 36.8730 -77.3160 19° North 533 613 27,000  Level FlightAware ADS-B
Sat 03:02:52 PM 36.9660 -77.2760 19° North 533 613 27,000  Level FlightAware ADS-B
Sat 03:03:37 PM 37.0900 -77.2210 19° North 27,000  Level FlightAware ADS-B
Sat 03:04:17 PM 37.1960 -77.1740 19° North 575 662 27,000  Level FlightAware ADS-B
Sat 03:04:57 PM 37.2940 -77.1290 20° North 571 657 27,000  Level FlightAware ADS-B
Sat 03:05:32 PM 37.3770 -77.0800 25° Northeast 577 664 27,000  Level FlightAware ADS-B
Sat 03:06:22 PM 37.4930 -76.9950 30° Northeast 587 676 27,000  Level FlightAware ADS-B
Sat 03:07:07 PM 37.6010 -76.9140 31° Northeast 578 665 27,000  Level FlightAware ADS-B
Sat 03:07:42 PM 37.6850 -76.8710 22° Northeast 574 661 27,000  Level FlightAware ADS-B
Sat 03:08:42 PM 37.8390 -76.8590 North 545 627 27,000  Level FlightAware ADS-B
Sat 03:08:51 PM 37.8745 -76.8590 360° North 544 626 27,000  Level FlightAware ADS-B
Sat 03:09:26 PM 37.9613 -76.8590 360° North 545 627 27,000  Level FlightAware ADS-B
Sat 03:10:07 PM 38.0580 -76.8540 North 554 638 27,000  Level FlightAware ADS-B
Sat 03:10:30 PM 38.1257 -76.8270 17° North 581 669 27,000  Level FlightAware ADS-B
Sat 03:11:06 PM 38.2061 -76.7565 35° Northeast 590 679 27,000  Level FlightAware ADS-B
Sat 03:12:09 PM 38.3280 -76.5958 46° Northeast 597 687 27,000  Level FlightAware ADS-B
Sat 03:12:40 PM 38.3864 -76.5198 46° Northeast 595 685 27,000  Level FlightAware ADS-B
Sat 03:13:13 PM 38.4489 -76.4388 45° Northeast 577 664 27,000  Level FlightAware ADS-B
Sat 03:13:48 PM 38.5144 -76.3541 45° Northeast 575 662 27,000  Level FlightAware ADS-B
Sat 03:14:19 PM 38.5724 -76.2783 46° Northeast 576 663 27,000  Level FlightAware ADS-B
Sat 03:14:49 PM 38.6287 -76.2045 46° Northeast 576 663 27,000  Level FlightAware ADS-B
Sat 03:15:21 PM 38.6878 -76.1266 46° Northeast 575 662 27,000  Level FlightAware ADS-B
Sat 03:15:53 PM 38.7462 -76.0498 46° Northeast 574 661 27,000  Level FlightAware ADS-B
Sat 03:16:23 PM 38.8021 -75.9762 46° Northeast 575 662 27,000  Level FlightAware ADS-B
Sat 03:16:55 PM 38.8606 -75.8986 46° Northeast 575 662 27,000  Level FlightAware ADS-B
Sat 03:17:25 PM 38.9165 -75.8244 46° Northeast 576 663 27,000  Level FlightAware ADS-B
Sat 03:17:42 PM 38.9486 -75.7855 43° Northeast 576 663 27,000  Level FlightAware ADS-B
Sat 03:17:51 PM 38.9672 -75.7661 39° Northeast 575 662 27,000  Level FlightAware ADS-B
Sat 03:18:21 PM 39.0328 -75.7043 36° Northeast 575 662 27,000 -98 Level FlightAware ADS-B
Sat 03:18:52 PM 39.0988 -75.6421 36° Northeast 576 663 26,900 -590 Descending FlightAware ADS-B
Sat 03:19:22 PM 39.1638 -75.5802 36° Northeast 573 659 26,400 -984 Descending FlightAware ADS-B
Sat 03:19:53 PM 39.2287 -75.5183 36° Northeast 568 654 25,900 -984 Descending FlightAware ADS-B
Sat 03:20:23 PM 39.2925 -75.4598 35° Northeast 558 642 25,400 -1,500 Descending FlightAware ADS-B
Sat 03:20:57 PM 39.3642 -75.3973 34° Northeast 553 636 24,300 -1,754 Descending FlightAware ADS-B
Sat 03:21:28 PM 39.4295 -75.3398 34° Northeast 532 612 23,500 -1,238 Descending FlightAware ADS-B
Sat 03:22:00 PM 39.4923 -75.2839 34° Northeast 513 590 23,000 -1,333 Descending FlightAware ADS-B
Sat 03:22:31 PM 39.5516 -75.2299 35° Northeast 505 581 22,100 -1,935 Descending FlightAware ADS-B
Sat 03:23:02 PM 39.6087 -75.1760 36° Northeast 493 567 21,000 -2,129 Descending FlightAware ADS-B
Sat 03:23:33 PM 39.6660 -75.1220 36° Northeast 482 555 19,900 -2,164 Descending FlightAware ADS-B
Sat 03:24:03 PM 39.7204 -75.0720 35° Northeast 468 539 18,800 -2,262 Descending FlightAware ADS-B
Sat 03:24:34 PM 39.7760 -75.0253 33° Northeast 459 528 17,600 -2,164 Descending FlightAware ADS-B
Sat 03:25:04 PM 39.8288 -74.9807 33° Northeast 448 516 16,600 -2,032 Descending FlightAware ADS-B
Sat 03:25:36 PM 39.8821 -74.9344 34° Northeast 439 505 15,500 -2,170 Descending FlightAware ADS-B
Sat 03:25:51 PM 39.9075 -74.9114 35° Northeast 435 501 14,900 -2,222 Descending FlightAware ADS-B
Sat 03:26:03 PM 39.9264 -74.8912 39° Northeast 435 501 14,500 -2,000 Descending FlightAware ADS-B
Sat 03:26:12 PM 39.9386 -74.8754 45° Northeast 434 499 14,200 -2,250 Descending FlightAware ADS-B
Sat 03:26:43 PM 39.9801 -74.8151 48° Northeast 429 494 13,000 -2,156 Descending FlightAware ADS-B
Sat 03:27:16 PM 40.0226 -74.7535 48° Northeast 420 483 11,900 -2,063 Descending FlightAware ADS-B
Sat 03:27:47 PM 40.0629 -74.6953 48° Northeast 416 479 10,800 -1,839 Descending FlightAware ADS-B
Sat 03:28:18 PM 40.1022 -74.6384 48° Northeast 399 459 10,000 -1,043 Descending FlightAware ADS-B
Sat 03:28:33 PM 40.1209 -74.6113 48° Northeast 395 455 10,000 -207 Level FlightAware ADS-B
Sat 03:28:47 PM 40.1373 -74.5879 47° Northeast 394 453 9,900 -375 Descending FlightAware ADS-B
Sat 03:28:49 PM 40.1397 -74.5844 48° Northeast 391 450 9,900 353 Level FlightAware ADS-B
Sat 03:29:04 PM 40.1579 -74.5582 48° Northeast 387 445 10,000  Climbing FlightAware ADS-B
Sat 03:29:21 PM 40.1792 -74.5280 47° Northeast 391 450 9,900  Descending FlightAware ADS-B
Sat 03:29:33 PM 40.1940 -74.5070 47° Northeast 394 453 10,000 316 Climbing FlightAware ADS-B
Sat 03:29:40 PM 40.2019 -74.4959 47° Northeast 394 453 10,000  Level FlightAware ADS-B
Sat 03:29:54 PM 40.2206 -74.4719 44° Northeast 391 450 10,000  Level FlightAware ADS-B
Sat 03:29:55 PM 40.2220 -74.4702 43° Northeast 392 451 10,000  Level FlightAware ADS-B
Sat 03:30:10 PM 40.2420 -74.4450 44° Northeast 395 455 10,000  Level FlightAware ADS-B
Sat 03:30:13 PM 40.2457 -74.4404 43° Northeast 395 455 10,000  Level FlightAware ADS-B
Sat 03:30:25 PM 40.2618 -74.4202 44° Northeast 393 452 10,000  Level FlightAware ADS-B
Sat 03:30:40 PM 40.2816 -74.3952 44° Northeast 395 455 10,000 -194 Level FlightAware ADS-B
Sat 03:30:56 PM 40.3019 -74.3694 44° Northeast 394 453 9,900  Descending FlightAware ADS-B
Sat 03:31:12 PM 40.3225 -74.3430 44° Northeast 395 455 10,000  Climbing FlightAware ADS-B
Sat 03:31:27 PM 40.3425 -74.3175 44° Northeast 390 449 9,900  Descending FlightAware ADS-B
Sat 03:31:42 PM 40.3616 -74.2929 44° Northeast 374 430 10,000  Climbing FlightAware ADS-B
Sat 03:32:00 PM 40.3829 -74.2658 44° Northeast 350 403 9,900 -514 Descending FlightAware ADS-B
Sat 03:32:17 PM 40.4017 -74.2421 44° Northeast 335 386 9,700 -750 Descending FlightAware ADS-B
Sat 03:32:32 PM 40.4189 -74.2205 44° Northeast 327 376 9,500 -706 Descending FlightAware ADS-B
Sat 03:32:51 PM 40.4388 -74.1956 44° Northeast 316 364 9,300 -882 Descending FlightAware ADS-B
Sat 03:33:06 PM 40.4545 -74.1756 44° Northeast 313 360 9,000 -1,273 Descending FlightAware ADS-B
Sat 03:33:24 PM 40.4734 -74.1514 44° Northeast 309 356 8,600 -1,235 Descending FlightAware ADS-B
Sat 03:33:40 PM 40.4886 -74.1320 44° Northeast 304 350 8,300 -1,355 Descending FlightAware ADS-B
Sat 03:33:55 PM 40.5042 -74.1121 44° Northeast 300 345 7,900 -1,459 Descending FlightAware ADS-B
Sat 03:34:17 PM 40.5262 -74.0866 41° Northeast 299 344 7,400 -1,263 Descending FlightAware ADS-B
Sat 03:34:52 PM 40.5640 -74.0550 32° Northeast 280 322 6,700 -1,171 Descending FlightAware ADS-B
Sat 03:34:58 PM 40.5719 -74.0481 34° Northeast 286 329 6,600 -1,304 Descending FlightAware ADS-B
Sat 03:35:15 PM 40.5908 -74.0317 33° Northeast 286 329 6,200 -1,125 Descending FlightAware ADS-B
Sat 03:36:02 PM 40.6380 -73.9910 33° Northeast 269 310 5,400 -1,250 Descending FlightAware ADS-B
Sat 03:36:27 PM 40.6630 -73.9690 34° Northeast 270 311 4,700 -1,650 Descending FlightAware ADS-B
Sat 03:36:42 PM 40.6780 -73.9510 42° Northeast 275 316 4,300 -933 Descending FlightAware ADS-B
Sat 03:37:12 PM 40.7010 -73.9130 51° Northeast 270 311 4,000 -533 Descending FlightAware ADS-B
Sat 03:37:27 PM 40.7120 -73.8960 50° Northeast 274 315 3,900 -150 Descending FlightAware ADS-B
Sat 03:37:52 PM 40.7340 -73.8610 50° Northeast 277 319 3,900 109 Level FlightAware ADS-B
Sat 03:38:22 PM 40.7580 -73.8220 51° Northeast 271 312 4,000 100 Climbing FlightAware ADS-B
Sat 03:38:52 PM 40.7820 -73.7840 50° Northeast 275 316 4,000 -436 Level FlightAware ADS-B
Sat 03:39:17 PM 40.8070 -73.7580 38° Northeast 269 310 3,600 -873 Descending FlightAware ADS-B
Sat 03:39:47 PM 40.8370 -73.7330 32° Northeast 259 298 3,200 -840 Descending FlightAware ADS-B
Sat 03:40:07 PM 40.8590 -73.7230 19° North 241 277 2,900 -1,050 Descending FlightAware ADS-B
Sat 03:40:27 PM 40.8780 -73.7330 338° Northwest 204 235 2,500 -1,029 Descending FlightAware ADS-B
Sat 03:40:42 PM 40.8830 -73.7480 294° West 193 222 2,300 -750 Descending FlightAware ADS-B
Sat 03:41:07 PM 40.8790 -73.7750 259° West 174 200 2,000 -600 Descending FlightAware ADS-B
Sat 03:41:22 PM 40.8740 -73.7900 246° West 166 191 1,900 -200 Descending FlightAware ADS-B
Sat 03:41:37 PM 40.8670 -73.8030 235° Southwest 177 204 1,900 -600 Level FlightAware ADS-B
Sat 03:42:02 PM 40.8510 -73.8160 212° Southwest 165 190 1,500 -800 Descending FlightAware ADS-B
Sat 03:42:22 PM 40.8390 -73.8260 212° Southwest 151 174 1,300 -750 Descending FlightAware ADS-B
Sat 03:42:42 PM 40.8280 -73.8350 212° Southwest 141 162 1,000 -900 Descending FlightAware ADS-B
Sat 03:43:02 PM 40.8180 -73.8440 214° Southwest 130 150 700 -750 Descending FlightAware ADS-B
Sat 03:43:22 PM 40.8080 -73.8520 211° Southwest 128 147 500 -600 Descending FlightAware ADS-B

Login

Don't have an account? Register now (free) for customized features, flight alerts, and more!